Time;durP1;ratioP1;P1;durP2;ratioP2;P2;SDS_P1;SDS_P2;PMS_P1;PMS_P2;Temp;Humidity;BMP_temperature;BMP_pressure;BME280_temperature;BME280_humidity;BME280_pressure;Samples;Min_cycle;Max_cycle;Signal;HPM_P1;HPM_P2
2022/07/12 00:01:50;;;;;;;4.57;2.78;;;15.60;99.90;;;;;;5069665;28;20086;-58
2022/07/12 00:04:16;;;;;;;3.75;2.90;;;15.60;99.90;;;;;;5069269;28;20829;-57
2022/07/12 00:06:42;;;;;;;5.53;2.95;;;15.70;99.90;;;;;;5069177;28;20044;-58
2022/07/12 00:09:07;;;;;;;4.28;2.60;;;16.20;99.90;;;;;;5068963;28;20076;-57
2022/07/12 00:11:35;;;;;;;3.17;2.75;;;15.70;99.90;;;;;;5068368;28;20044;-57
2022/07/12 00:14:00;;;;;;;4.18;2.83;;;16.00;99.90;;;;;;5068766;28;20506;-58
2022/07/12 00:16:26;;;;;;;3.78;2.53;;;15.40;99.90;;;;;;5068658;28;20060;-57
2022/07/12 00:18:53;;;;;;;3.00;2.45;;;16.00;99.90;;;;;;5068673;28;20079;-57
2022/07/12 00:21:18;;;;;;;3.22;2.20;;;15.60;99.90;;;;;;5069446;28;20041;-58
2022/07/12 00:23:44;;;;;;;2.80;2.22;;;15.50;99.90;;;;;;5069125;28;20393;-58
2022/07/12 00:26:10;;;;;;;3.65;2.47;;;15.60;99.90;;;;;;5068631;28;20573;-58
2022/07/12 00:28:35;;;;;;;3.30;2.20;;;15.60;99.90;;;;;;5068843;28;20529;-57
2022/07/12 00:31:01;;;;;;;3.30;2.00;;;15.60;99.90;;;;;;5068809;28;20457;-58
2022/07/12 00:33:27;;;;;;;2.63;1.98;;;15.50;99.90;;;;;;5068883;28;20482;-57
2022/07/12 00:35:53;;;;;;;3.75;2.17;;;15.40;99.90;;;;;;5069266;28;20086;-57
2022/07/12 00:38:19;;;;;;;3.10;2.38;;;15.30;99.90;;;;;;5068650;28;20166;-58
2022/07/12 00:40:44;;;;;;;2.55;2.00;;;15.10;99.90;;;;;;5068617;28;20097;-57
2022/07/12 00:43:10;;;;;;;3.30;2.05;;;15.00;99.90;;;;;;5068320;28;20041;-58
2022/07/12 00:45:35;;;;;;;3.45;2.15;;;14.90;99.90;;;;;;5068459;28;20040;-58
2022/07/12 00:48:02;;;;;;;3.20;2.35;;;14.70;99.90;;;;;;5068932;28;20053;-58
2022/07/12 00:50:27;;;;;;;3.13;2.60;;;14.60;99.90;;;;;;5068917;28;20044;-57
2022/07/12 00:52:55;;;;;;;2.88;1.65;;;14.50;99.90;;;;;;5068542;28;20106;-58
2022/07/12 00:55:22;;;;;;;2.55;1.85;;;14.40;99.90;;;;;;5068548;28;20462;-57
2022/07/12 00:57:48;;;;;;;2.13;1.73;;;14.50;99.90;;;;;;5068268;28;20524;-57
2022/07/12 01:00:17;;;;;;;2.65;1.73;;;14.20;99.90;;;;;;5068476;28;20040;-57
2022/07/12 01:02:44;;;;;;;2.60;1.92;;;14.40;99.90;;;;;;5068352;28;20040;-57
2022/07/12 01:05:10;;;;;;;3.03;1.85;;;14.10;99.90;;;;;;5068063;28;20102;-57
2022/07/12 01:07:36;;;;;;;3.08;2.30;;;14.10;99.90;;;;;;5067986;28;20040;-57
2022/07/12 01:10:05;;;;;;;3.22;2.20;;;14.30;99.90;;;;;;5067774;28;20442;-57
2022/07/12 01:12:31;;;;;;;4.95;1.77;;;14.00;99.90;;;;;;5067846;28;20151;-57
2022/07/12 01:14:58;;;;;;;3.35;1.83;;;14.40;99.90;;;;;;5068578;28;20465;-57
2022/07/12 01:17:26;;;;;;;4.10;1.95;;;13.80;99.90;;;;;;5067741;28;20051;-57
2022/07/12 01:19:55;;;;;;;5.68;2.30;;;13.60;99.90;;;;;;5067921;28;20127;-57
2022/07/12 01:22:32;;;;;;;3.10;2.08;;;13.60;99.90;;;;;;5067582;28;20117;-58
2022/07/12 01:25:00;;;;;;;3.53;2.05;;;13.30;99.90;;;;;;5066146;28;20047;-57
2022/07/12 01:27:27;;;;;;;3.30;1.80;;;13.50;99.90;;;;;;5067669;28;20059;-57
2022/07/12 01:29:53;;;;;;;3.17;2.60;;;13.40;99.90;;;;;;5067858;28;20043;-57
2022/07/12 01:32:24;;;;;;;5.18;2.30;;;13.50;99.90;;;;;;5067299;28;20040;-57
2022/07/12 01:35:01;;;;;;;3.25;1.90;;;13.30;99.90;;;;;;5068242;28;20062;-58
2022/07/12 01:37:35;;;;;;;3.63;2.08;;;13.30;99.90;;;;;;5067494;28;20078;-57
2022/07/12 01:40:03;;;;;;;3.42;1.95;;;13.70;99.90;;;;;;5067766;28;20040;-58
2022/07/12 01:42:29;;;;;;;4.43;2.40;;;13.10;99.90;;;;;;5067224;28;20033;-57
2022/07/12 01:44:56;;;;;;;3.92;2.22;;;13.00;99.90;;;;;;5067407;28;20040;-57
2022/07/12 01:47:24;;;;;;;3.40;1.90;;;12.70;99.90;;;;;;5067090;28;20052;-57
2022/07/12 01:49:50;;;;;;;6.10;2.60;;;13.00;99.90;;;;;;5066964;28;20040;-57
2022/07/12 01:52:17;;;;;;;3.30;2.22;;;14.20;99.90;;;;;;5067354;28;20441;-57
2022/07/12 01:54:43;;;;;;;5.35;2.85;;;14.00;99.90;;;;;;5066867;28;20514;-57
2022/07/12 01:57:09;;;;;;;5.05;2.50;;;13.10;99.90;;;;;;5067362;28;20047;-57
2022/07/12 01:59:36;;;;;;;4.00;2.47;;;13.30;99.90;;;;;;5067194;28;20611;-57
2022/07/12 02:02:01;;;;;;;2.85;1.83;;;13.20;99.90;;;;;;5067307;28;20177;-57
2022/07/12 02:04:27;;;;;;;3.30;2.25;;;13.20;99.90;;;;;;5067117;28;20311;-57
2022/07/12 02:06:54;;;;;;;3.15;1.90;;;13.70;99.90;;;;;;5067655;28;20411;-58
2022/07/12 02:09:20;;;;;;;3.38;2.10;;;13.00;99.90;;;;;;5067309;28;20047;-57
2022/07/12 02:11:49;;;;;;;2.53;1.58;;;12.90;99.90;;;;;;5065512;28;20045;-57
2022/07/12 02:14:15;;;;;;;3.65;2.05;;;12.80;99.90;;;;;;5067203;28;20098;-57
2022/07/12 02:16:42;;;;;;;4.55;1.63;;;12.70;99.90;;;;;;5067343;28;20265;-57
2022/07/12 02:19:09;;;;;;;3.17;1.92;;;12.60;99.90;;;;;;5066848;28;20048;-57
2022/07/12 02:21:34;;;;;;;3.97;1.90;;;12.30;99.90;;;;;;5066972;28;20407;-57
2022/07/12 02:24:02;;;;;;;4.13;1.63;;;12.30;99.90;;;;;;5066979;28;20048;-58
2022/07/12 02:26:28;;;;;;;3.45;1.55;;;12.20;99.90;;;;;;5066930;28;20512;-57
2022/07/12 02:28:56;;;;;;;3.63;2.17;;;12.20;99.90;;;;;;5067446;28;20041;-57
2022/07/12 02:31:23;;;;;;;2.97;1.98;;;;;;;;;;5067262;28;20056;-57
2022/07/12 02:33:49;;;;;;;2.95;1.40;;;;;;;;;;5067451;28;20063;-57
2022/07/12 02:36:14;;;;;;;2.67;1.15;;;11.90;99.90;;;;;;5066327;28;20072;-57
2022/07/12 02:38:40;;;;;;;3.80;1.40;;;;;;;;;;5067450;28;20068;-58
2022/07/12 02:41:06;;;;;;;2.10;1.15;;;;;;;;;;5067634;28;20482;-57
2022/07/12 02:43:34;;;;;;;2.05;1.20;;;;;;;;;;5067474;28;20075;-57
2022/07/12 02:46:26;;;;;;;2.10;1.10;;;11.60;99.90;;;;;;5067363;28;20076;-58
2022/07/12 02:48:52;;;;;;;1.88;0.93;;;12.30;99.90;;;;;;5065286;28;20486;-57
2022/07/12 02:51:18;;;;;;;4.07;0.90;;;12.10;99.90;;;;;;5067219;28;20041;-57
2022/07/12 02:53:44;;;;;;;3.13;0.82;;;11.30;99.90;;;;;;5067367;28;20051;-58
2022/07/12 02:56:11;;;;;;;1.67;0.80;;;11.20;99.90;;;;;;5067336;28;20123;-57
2022/07/12 02:58:37;;;;;;;4.35;1.20;;;11.20;99.90;;;;;;5067581;28;20053;-57
2022/07/12 03:01:04;;;;;;;2.08;0.77;;;11.10;99.90;;;;;;5067531;28;20033;-57
2022/07/12 03:03:30;;;;;;;2.28;0.68;;;11.10;99.90;;;;;;5069899;28;20127;-57
2022/07/12 03:05:56;;;;;;;2.15;0.52;;;11.00;99.90;;;;;;5070896;28;20112;-57
2022/07/12 03:08:22;;;;;;;1.95;0.73;;;11.00;99.90;;;;;;5070807;28;20036;-57
2022/07/12 03:10:47;;;;;;;1.58;0.77;;;11.00;99.90;;;;;;5070162;28;20042;-57
2022/07/12 03:13:13;;;;;;;3.75;1.33;;;11.80;99.90;;;;;;5070622;28;20088;-57
2022/07/12 03:15:39;;;;;;;4.18;1.45;;;10.90;99.90;;;;;;5070760;28;20056;-57
2022/07/12 03:18:04;;;;;;;2.58;1.13;;;11.20;99.90;;;;;;5070483;28;20481;-57
2022/07/12 03:20:31;;;;;;;2.42;1.45;;;10.90;99.90;;;;;;5070584;28;20056;-58
2022/07/12 03:22:57;;;;;;;3.05;1.25;;;11.30;99.90;;;;;;5068888;28;20040;-57
2022/07/12 03:25:24;;;;;;;7.55;1.48;;;10.70;99.90;;;;;;5070198;28;20040;-58
2022/07/12 03:27:50;;;;;;;70.22;2.50;;;10.80;99.90;;;;;;5070102;28;20120;-57
2022/07/12 03:30:16;;;;;;;7.20;1.00;;;10.80;99.90;;;;;;5070365;28;20138;-57
2022/07/12 03:32:42;;;;;;;4.03;0.80;;;10.80;99.90;;;;;;5070065;28;20043;-57
2022/07/12 03:35:08;;;;;;;1.67;0.70;;;10.80;99.90;;;;;;5070075;28;20501;-57
2022/07/12 03:37:45;;;;;;;1.95;0.73;;;10.70;99.90;;;;;;5069668;28;20170;-57
2022/07/12 03:40:11;;;;;;;2.83;1.20;;;11.20;99.90;;;;;;5069531;28;20333;-57
2022/07/12 03:42:37;;;;;;;2.58;1.15;;;10.70;99.90;;;;;;5069517;28;20047;-57
2022/07/12 03:45:03;;;;;;;3.47;1.48;;;11.20;99.90;;;;;;5070012;28;20040;-57
2022/07/12 03:47:29;;;;;;;2.83;1.58;;;10.60;99.90;;;;;;5069694;28;20149;-57
2022/07/12 03:49:56;;;;;;;3.03;1.70;;;10.60;99.90;;;;;;5068470;28;20090;-57
2022/07/12 03:52:22;;;;;;;3.22;1.73;;;10.40;99.90;;;;;;5069416;28;20489;-57
2022/07/12 03:54:47;;;;;;;2.28;1.10;;;10.60;99.90;;;;;;5069417;28;20058;-57
2022/07/12 03:57:13;;;;;;;4.75;1.40;;;10.60;99.90;;;;;;5069893;28;20080;-57
2022/07/12 03:59:39;;;;;;;3.08;1.50;;;10.60;99.90;;;;;;5069320;28;20051;-57
2022/07/12 04:02:05;;;;;;;1.77;0.80;;;10.60;99.90;;;;;;5069402;28;20048;-57
2022/07/12 04:04:30;;;;;;;3.20;1.75;;;10.60;99.90;;;;;;5069416;28;20036;-57
2022/07/12 04:06:56;;;;;;;3.15;1.55;;;10.70;99.90;;;;;;5069310;28;20048;-57
2022/07/12 04:09:22;;;;;;;3.10;1.30;;;10.60;99.90;;;;;;5069280;28;20043;-57
2022/07/12 04:11:48;;;;;;;4.63;1.60;;;10.80;99.90;;;;;;5065704;28;20090;-57
2022/07/12 04:14:15;;;;;;;5.97;1.92;;;10.90;99.90;;;;;;5045610;28;20698;-56
2022/07/12 04:16:41;;;;;;;5.25;1.95;;;12.20;99.90;;;;;;5065589;28;20055;-58
2022/07/12 04:19:08;;;;;;;33.65;2.70;;;11.10;99.90;;;;;;5067885;28;20573;-59
2022/07/12 04:21:35;;;;;;;26.33;2.05;;;11.30;99.90;;;;;;5066871;28;20055;-52
2022/07/12 04:24:01;;;;;;;68.03;3.65;;;11.40;99.90;;;;;;5067996;28;20524;-45
2022/07/12 04:26:27;;;;;;;11.02;2.45;;;12.00;99.90;;;;;;5068894;28;20052;-55
2022/07/12 04:28:52;;;;;;;14.30;2.20;;;11.60;99.90;;;;;;5068826;28;20129;-48
2022/07/12 04:31:18;;;;;;;21.33;2.55;;;11.50;99.90;;;;;;5067436;28;20049;-49
2022/07/12 04:33:44;;;;;;;38.90;2.60;;;11.90;99.90;;;;;;5069042;28;20052;-51
2022/07/12 04:36:10;;;;;;;19.35;2.45;;;11.90;99.90;;;;;;5069718;28;20059;-52
2022/07/12 04:38:36;;;;;;;22.13;2.58;;;12.10;99.90;;;;;;5069408;28;20119;-51
2022/07/12 04:41:02;;;;;;;4.75;1.83;;;12.20;99.90;;;;;;5069847;28;20048;-52
2022/07/12 04:43:27;;;;;;;16.80;3.30;;;12.60;99.90;;;;;;5069387;28;20462;-52
2022/07/12 04:45:53;;;;;;;35.45;3.20;;;12.60;99.90;;;;;;5068725;28;20060;-51
2022/07/12 04:48:18;;;;;;;38.97;3.97;;;13.90;99.90;;;;;;5069122;28;20055;-52
2022/07/12 04:50:44;;;;;;;70.60;4.25;;;13.10;99.90;;;;;;5068718;28;20072;-50
2022/07/12 04:53:10;;;;;;;74.80;5.07;;;13.10;99.90;;;;;;5068746;28;20375;-53
2022/07/12 04:55:36;;;;;;;35.78;4.20;;;13.50;99.90;;;;;;5068524;28;20037;-51
2022/07/12 04:58:02;;;;;;;11.82;2.88;;;15.50;99.90;;;;;;5068611;28;20121;-52
2022/07/12 05:00:28;;;;;;;4.68;3.17;;;13.40;99.90;;;;;;5068326;28;20049;-50
2022/07/12 05:02:53;;;;;;;4.47;2.60;;;13.40;99.90;;;;;;5068438;28;20048;-53
2022/07/12 05:05:19;;;;;;;8.98;2.38;;;13.50;99.90;;;;;;5066527;28;20051;-52
2022/07/12 05:07:45;;;;;;;3.95;2.40;;;13.90;99.90;;;;;;5068169;28;20044;-52
2022/07/12 05:10:11;;;;;;;2.80;1.60;;;13.60;99.90;;;;;;5067869;28;20062;-53
2022/07/12 05:12:37;;;;;;;2.88;1.77;;;13.70;99.90;;;;;;5067945;28;20055;-52
2022/07/12 05:15:04;;;;;;;3.80;2.47;;;13.80;99.90;;;;;;5068012;28;20082;-53
2022/07/12 05:17:30;;;;;;;5.72;2.92;;;13.90;99.90;;;;;;5067799;28;20125;-52
2022/07/12 05:19:56;;;;;;;3.92;3.10;;;14.50;99.90;;;;;;5067971;28;20090;-54
2022/07/12 05:22:22;;;;;;;3.75;3.25;;;14.30;99.90;;;;;;5068238;28;20048;-53
2022/07/12 05:24:48;;;;;;;4.32;3.20;;;14.70;99.90;;;;;;5067226;28;20047;-52
2022/07/12 05:27:14;;;;;;;4.85;3.75;;;14.60;99.90;;;;;;5068264;28;20067;-53
2022/07/12 05:29:39;;;;;;;5.22;3.20;;;14.70;99.90;;;;;;5068178;28;20047;-52
2022/07/12 05:32:05;;;;;;;4.65;3.38;;;14.70;99.90;;;;;;5068594;28;20490;-51
2022/07/12 05:34:31;;;;;;;7.72;4.07;;;14.60;99.90;;;;;;5068441;28;20040;-53
2022/07/12 05:36:57;;;;;;;8.93;3.88;;;14.90;99.90;;;;;;5068028;28;20497;-53
2022/07/12 05:39:22;;;;;;;11.20;4.03;;;14.60;99.90;;;;;;5068357;28;20505;-54
2022/07/12 05:41:48;;;;;;;9.07;3.42;;;14.70;99.90;;;;;;5068372;28;20402;-54
2022/07/12 05:44:16;;;;;;;6.53;3.00;;;14.80;99.90;;;;;;5068041;28;20044;-52
2022/07/12 05:46:42;;;;;;;4.38;2.25;;;14.90;99.90;;;;;;5068123;28;20102;-52
2022/07/12 05:49:08;;;;;;;4.75;2.20;;;15.10;99.90;;;;;;5068439;28;20044;-52
2022/07/12 05:54:18;;;;;;;3.92;2.33;;;16.50;99.90;;;;;;5068281;28;20063;-52
2022/07/12 05:56:43;;;;;;;6.90;3.03;;;18.10;99.90;;;;;;5068060;28;20052;-53
2022/07/12 05:59:09;;;;;;;4.93;3.90;;;18.30;99.90;;;;;;5068308;28;20041;-53
2022/07/12 06:01:35;;;;;;;4.00;3.35;;;18.30;99.90;;;;;;5068181;28;20082;-53
2022/07/12 06:04:01;;;;;;;4.32;3.72;;;18.40;99.90;;;;;;5067783;28;20051;-53
2022/07/12 06:06:27;;;;;;;5.03;4.53;;;18.60;99.90;;;;;;5067806;28;20048;-54
2022/07/12 06:08:53;;;;;;;6.72;4.38;;;18.80;99.90;;;;;;5066809;28;20032;-54
2022/07/12 06:11:18;;;;;;;5.10;4.47;;;19.00;99.90;;;;;;5067825;28;20069;-54
2022/07/12 06:13:44;;;;;;;5.38;4.45;;;19.10;99.90;;;;;;5067671;28;20655;-54
2022/07/12 06:16:11;;;;;;;6.72;4.82;;;19.20;99.90;;;;;;5067125;28;20475;-54
2022/07/12 06:18:37;;;;;;;5.47;4.97;;;19.30;99.90;;;;;;5067593;28;20117;-54
2022/07/12 06:21:03;;;;;;;5.35;4.82;;;19.40;99.90;;;;;;5067568;28;20037;-53
2022/07/12 06:23:30;;;;;;;5.75;5.07;;;19.50;99.90;;;;;;5066795;28;20552;-54
2022/07/12 06:25:55;;;;;;;4.82;4.20;;;19.70;99.90;;;;;;5067329;28;20102;-55
2022/07/12 06:28:21;;;;;;;4.50;4.10;;;19.80;99.90;;;;;;5066971;28;20044;-54
2022/07/12 06:30:47;;;;;;;5.25;4.50;;;19.90;99.90;;;;;;5067105;28;20040;-53
2022/07/12 06:33:12;;;;;;;4.22;3.83;;;20.10;99.90;;;;;;5066443;28;20076;-54
2022/07/12 06:35:38;;;;;;;4.47;4.07;;;20.40;99.90;;;;;;5067250;28;20047;-54
2022/07/12 06:38:04;;;;;;;6.22;4.30;;;20.60;99.90;;;;;;5070472;28;20118;-54
2022/07/12 06:40:29;;;;;;;5.00;4.47;;;20.80;99.90;;;;;;5071383;28;20344;-54
2022/07/12 06:42:55;;;;;;;6.68;4.70;;;21.10;99.90;;;;;;5071263;28;20123;-54
2022/07/12 06:45:21;;;;;;;4.95;4.55;;;21.20;99.90;;;;;;5070972;28;20127;-54
2022/07/12 06:47:47;;;;;;;5.43;4.70;;;21.20;99.90;;;;;;5071291;28;20603;-54
2022/07/12 06:50:13;;;;;;;4.68;4.22;;;21.50;99.90;;;;;;5070889;28;20540;-54
2022/07/12 06:52:38;;;;;;;5.13;4.22;;;21.80;99.90;;;;;;5070671;28;20138;-54
2022/07/12 06:55:05;;;;;;;5.00;3.63;;;22.00;99.90;;;;;;5069592;28;20044;-55
2022/07/12 06:57:30;;;;;;;4.38;3.95;;;22.50;99.90;;;;;;5069443;28;20048;-55
2022/07/12 06:59:56;;;;;;;4.68;4.28;;;22.70;98.20;;;;;;5070130;28;20134;-54
2022/07/12 07:02:22;;;;;;;4.75;4.30;;;23.20;97.50;;;;;;5070244;28;20044;-54
2022/07/12 07:04:48;;;;;;;6.13;3.83;;;23.50;95.40;;;;;;5070588;28;20044;-54
2022/07/12 07:07:14;;;;;;;3.63;3.33;;;24.00;94.40;;;;;;5070149;28;20036;-54
2022/07/12 07:09:41;;;;;;;3.67;3.28;;;24.10;93.70;;;;;;5070047;28;20042;-57
2022/07/12 07:12:07;;;;;;;3.22;2.55;;;24.60;94.30;;;;;;5070002;28;20114;-55
2022/07/12 07:14:33;;;;;;;2.90;2.58;;;25.20;93.50;;;;;;5070126;28;20057;-55
2022/07/12 07:16:59;;;;;;;3.70;2.83;;;25.80;91.70;;;;;;5070021;28;20044;-55
2022/07/12 07:19:26;;;;;;;3.47;2.83;;;26.60;90.50;;;;;;5070309;28;20039;-55
2022/07/12 07:21:52;;;;;;;2.78;2.05;;;27.40;85.90;;;;;;5069737;28;20044;-57
2022/07/12 07:24:19;;;;;;;3.03;2.50;;;28.30;85.00;;;;;;5069503;28;20102;-57
2022/07/12 07:26:44;;;;;;;3.15;2.63;;;28.90;81.30;;;;;;5070280;28;20084;-57
2022/07/12 07:31:54;;;;;;;2.40;2.20;;;30.20;75.90;;;;;;5070082;28;20055;-57
2022/07/12 07:34:20;;;;;;;3.80;2.28;;;30.60;73.90;;;;;;5070203;28;20044;-57
2022/07/12 07:36:46;;;;;;;2.28;1.80;;;30.70;72.70;;;;;;5070533;28;20512;-57
2022/07/12 07:39:12;;;;;;;2.40;2.03;;;30.70;71.20;;;;;;5070403;28;20037;-57
2022/07/12 07:41:38;;;;;;;4.82;2.28;;;30.60;71.40;;;;;;5070371;28;20044;-58
2022/07/12 07:44:03;;;;;;;2.10;1.85;;;30.50;70.00;;;;;;5070410;28;20302;-57
2022/07/12 07:46:29;;;;;;;2.47;2.05;;;30.90;69.40;;;;;;5070398;28;20429;-57
2022/07/12 07:48:55;;;;;;;4.07;2.38;;;31.60;67.80;;;;;;5067927;28;20048;-57
2022/07/12 07:51:20;;;;;;;2.60;2.40;;;33.20;65.70;;;;;;5070126;28;20128;-58
2022/07/12 07:53:46;;;;;;;3.03;2.30;;;34.30;63.10;;;;;;5070322;28;20072;-57
2022/07/12 07:56:12;;;;;;;2.55;2.17;;;35.10;60.50;;;;;;5069948;28;20397;-57
2022/07/12 07:58:37;;;;;;;2.83;1.77;;;36.10;59.70;;;;;;5069884;28;20095;-58
2022/07/12 08:01:03;;;;;;;2.10;1.58;;;36.90;58.50;;;;;;5069785;28;20045;-57
2022/07/12 08:03:29;;;;;;;2.58;2.10;;;37.80;57.40;;;;;;5070024;28;20527;-57
2022/07/12 08:05:57;;;;;;;4.38;2.00;;;38.50;55.30;;;;;;5069636;28;20048;-58
2022/07/12 08:08:23;;;;;;;1.70;1.50;;;39.00;53.00;;;;;;5069805;28;20045;-58
2022/07/12 08:10:51;;;;;;;2.95;1.67;;;39.60;52.80;;;;;;5068970;28;20420;-55
2022/07/12 08:13:17;;;;;;;2.88;1.50;;;39.80;51.40;;;;;;5068779;28;20056;-56
2022/07/12 08:15:43;;;;;;;1.55;1.35;;;40.40;51.20;;;;;;5069104;28;20040;-55
2022/07/12 08:18:09;;;;;;;1.85;1.35;;;41.00;50.60;;;;;;5067675;28;20090;-55
2022/07/12 08:20:35;;;;;;;1.70;1.15;;;41.30;49.80;;;;;;5068795;28;20052;-56
2022/07/12 08:23:00;;;;;;;2.35;1.40;;;41.60;48.80;;;;;;5068898;28;20044;-55
2022/07/12 08:25:26;;;;;;;3.42;1.50;;;41.80;48.70;;;;;;5068753;28;20041;-55
2022/07/12 08:27:52;;;;;;;4.22;1.50;;;42.00;48.20;;;;;;5069173;28;20471;-55
2022/07/12 08:30:17;;;;;;;2.20;1.20;;;42.20;47.40;;;;;;5069063;28;20081;-55
2022/07/12 08:32:46;;;;;;;2.80;1.42;;;42.70;47.50;;;;;;5068659;28;20111;-57
2022/07/12 08:35:14;;;;;;;2.03;1.15;;;43.20;46.80;;;;;;5068486;28;20052;-57
2022/07/12 08:37:40;;;;;;;2.40;1.17;;;43.50;46.70;;;;;;5068846;28;20434;-58
2022/07/12 08:40:07;;;;;;;2.38;1.27;;;43.60;45.70;;;;;;5068798;28;20057;-58
2022/07/12 08:42:33;;;;;;;3.53;1.13;;;43.90;44.80;;;;;;5068535;28;20129;-57
2022/07/12 08:44:59;;;;;;;2.00;1.13;;;43.80;44.30;;;;;;5066504;28;20508;-58
2022/07/12 08:47:26;;;;;;;1.73;0.90;;;43.10;44.30;;;;;;5068476;28;20390;-57
2022/07/12 08:50:17;;;;;;;2.42;0.80;;;42.50;43.80;;;;;;5068608;28;20079;-57
2022/07/12 08:52:44;;;;;;;1.67;1.00;;;42.10;46.90;;;;;;5068374;28;20108;-57
2022/07/12 08:55:33;;;;;;;1.60;0.77;;;41.70;46.10;;;;;;5068310;28;20048;-57
2022/07/12 08:58:05;;;;;;;1.10;0.60;;;41.60;46.30;;;;;;5068988;28;20091;-57
2022/07/12 09:00:32;;;;;;;2.42;1.17;;;41.50;46.30;;;;;;5067732;28;20071;-57
2022/07/12 09:02:59;;;;;;;1.80;0.50;;;41.40;46.40;;;;;;5068530;28;20090;-57
2022/07/12 09:05:27;;;;;;;1.50;0.90;;;41.10;46.10;;;;;;5068462;28;20083;-58
2022/07/12 09:08:01;;;;;;;1.33;0.52;;;40.90;45.10;;;;;;5068544;28;20119;-57
2022/07/12 09:10:27;;;;;;;1.35;0.50;;;40.50;46.90;;;;;;5067888;28;20036;-57
2022/07/12 09:12:53;;;;;;;2.28;0.60;;;40.10;47.00;;;;;;5049943;28;20067;-57
2022/07/12 09:15:23;;;;;;;1.27;0.68;;;39.60;47.40;;;;;;5068030;28;20462;-57
2022/07/12 09:17:56;;;;;;;2.53;0.60;;;39.20;46.00;;;;;;5067959;28;20449;-57
2022/07/12 09:20:34;;;;;;;1.92;0.80;;;38.80;47.70;;;;;;5066007;28;20052;-58
2022/07/12 09:23:08;;;;;;;3.72;0.70;;;38.70;48.60;;;;;;5068145;28;20410;-57
2022/07/12 09:25:35;;;;;;;2.00;0.60;;;38.70;47.80;;;;;;5067691;28;20040;-57
2022/07/12 09:28:05;;;;;;;2.55;0.68;;;38.70;48.10;;;;;;5067861;28;20115;-55
2022/07/12 09:30:31;;;;;;;1.92;0.82;;;39.00;48.40;;;;;;5067792;28;20086;-55
2022/07/12 09:36:15;;;;;;;1.25;0.77;;;39.30;46.80;;;;;;5067819;28;20413;-57
2022/07/12 09:38:50;;;;;;;1.00;0.50;;;39.10;47.80;;;;;;5067726;28;20056;-57
2022/07/12 09:41:23;;;;;;;1.60;0.85;;;39.10;47.70;;;;;;5067701;28;20050;-57
2022/07/12 09:43:50;;;;;;;2.67;0.70;;;39.10;47.20;;;;;;5067271;28;20186;-57
2022/07/12 09:46:17;;;;;;;1.80;0.77;;;39.50;46.80;;;;;;5066803;28;20433;-58
2022/07/12 09:48:47;;;;;;;2.28;1.17;;;39.50;45.90;;;;;;5067502;28;20075;-57
2022/07/12 09:51:17;;;;;;;1.25;0.77;;;39.20;46.60;;;;;;5067231;28;20059;-57
2022/07/12 09:53:49;;;;;;;1.48;0.47;;;39.00;47.00;;;;;;5067294;28;20044;-57
2022/07/12 09:56:17;;;;;;;2.55;0.77;;;39.10;49.30;;;;;;5067098;28;20497;-57
2022/07/12 09:58:57;;;;;;;1.30;0.40;;;39.10;48.30;;;;;;5065805;28;20044;-57
2022/07/12 10:01:24;;;;;;;0.83;0.57;;;39.40;48.10;;;;;;5067223;28;20032;-57
2022/07/12 10:03:51;;;;;;;2.13;0.50;;;39.20;47.00;;;;;;5065673;28;20055;-57
2022/07/12 10:06:29;;;;;;;1.70;0.70;;;39.20;46.30;;;;;;5066972;28;20083;-57
2022/07/12 10:08:56;;;;;;;1.27;0.40;;;39.10;46.20;;;;;;5067860;28;20203;-57
2022/07/12 10:11:24;;;;;;;2.15;0.50;;;39.10;48.50;;;;;;5066489;28;20107;-57
2022/07/12 10:13:51;;;;;;;1.58;0.55;;;39.30;48.40;;;;;;5067445;28;20095;-57
2022/07/12 10:16:26;;;;;;;1.40;0.40;;;39.60;48.00;;;;;;5067259;28;20048;-57
2022/07/12 10:19:21;;;;;;;1.15;0.30;;;39.90;46.30;;;;;;5067013;28;20087;-57
2022/07/12 10:21:48;;;;;;;1.17;0.40;;;40.00;46.80;;;;;;5067439;28;20037;-57
2022/07/12 10:24:32;;;;;;;2.17;0.32;;;39.70;47.10;;;;;;5067153;28;20049;-57
2022/07/12 10:27:21;;;;;;;1.23;0.32;;;39.90;48.50;;;;;;5067449;28;20044;-57
2022/07/12 10:29:49;;;;;;;1.08;0.30;;;40.40;47.10;;;;;;5061188;28;20048;-57
2022/07/12 10:32:26;;;;;;;1.27;0.57;;;41.00;46.50;;;;;;5066768;28;20049;-57
2022/07/12 10:35:22;;;;;;;2.03;0.40;;;41.60;45.80;;;;;;5065933;28;20045;-57
2022/07/12 10:38:14;;;;;;;1.23;0.43;;;41.70;44.40;;;;;;5057993;28;20060;-57
2022/07/12 10:40:43;;;;;;;2.97;0.40;;;40.90;46.70;;;;;;5067028;28;20051;-57
2022/07/12 10:43:09;;;;;;;1.23;0.55;;;39.50;47.20;;;;;;5067066;28;20045;-57
2022/07/12 10:45:39;;;;;;;1.33;0.20;;;38.60;47.60;;;;;;5066834;28;20048;-57
2022/07/12 10:48:06;;;;;;;;;;;37.90;48.60;;;;;;5067373;28;20063;-57
2022/07/12 10:50:44;;;;;;;0.65;0.20;;;37.20;50.20;;;;;;5066929;28;19970;-57
2022/07/12 10:53:19;;;;;;;1.05;0.20;;;36.80;49.20;;;;;;5067051;28;20048;-57
2022/07/12 10:56:03;;;;;;;0.70;0.30;;;36.50;51.30;;;;;;5067426;28;20123;-55
2022/07/12 10:58:38;;;;;;;0.82;0.20;;;36.10;52.00;;;;;;5066925;28;20054;-55
2022/07/12 11:01:08;;;;;;;0.98;0.20;;;35.60;51.90;;;;;;5067533;28;20059;-55
2022/07/12 11:03:49;;;;;;;0.50;0.20;;;35.20;52.30;;;;;;5066854;28;20381;-54
2022/07/12 11:06:20;;;;;;;0.73;0.20;;;34.60;52.30;;;;;;5067050;28;20044;-55
2022/07/12 11:08:57;;;;;;;0.40;0.10;;;34.20;53.10;;;;;;5066626;28;20505;-54
2022/07/12 11:11:48;;;;;;;0.20;0.10;;;33.80;55.10;;;;;;5066036;28;20386;-54
2022/07/12 11:14:20;;;;;;;;;;;33.50;55.70;;;;;;5066607;28;20376;-56
2022/07/12 11:16:47;;;;;;;1.42;0.10;;;33.20;54.70;;;;;;5066848;28;19946;-56
2022/07/12 11:19:14;;;;;;;1.02;0.20;;;32.90;55.50;;;;;;5066793;28;20054;-56
2022/07/12 11:21:44;;;;;;;1.13;0.20;;;32.60;55.60;;;;;;5066841;28;20059;-56
2022/07/12 11:24:17;;;;;;;1.08;0.13;;;32.50;56.10;;;;;;5068954;28;20041;-56
2022/07/12 11:26:43;;;;;;;0.73;0.22;;;32.30;58.00;;;;;;5070159;28;20047;-56
2022/07/12 11:29:09;;;;;;;1.73;0.20;;;32.10;58.50;;;;;;5069766;28;20040;-57
2022/07/12 11:31:35;;;;;;;1.02;0.30;;;32.00;57.90;;;;;;5069699;28;20454;-56
2022/07/12 11:34:01;;;;;;;0.50;0.10;;;31.80;58.50;;;;;;5069907;28;20083;-56
2022/07/12 11:36:28;;;;;;;7.72;0.80;;;31.70;56.40;;;;;;5069753;28;20167;-56
2022/07/12 11:38:54;;;;;;;3.30;0.60;;;31.60;57.60;;;;;;5069904;28;20119;-57
2022/07/12 11:41:20;;;;;;;1.40;0.10;;;31.50;56.70;;;;;;5069860;28;20691;-56
2022/07/12 11:43:45;;;;;;;2.75;0.20;;;31.50;57.60;;;;;;5069889;28;20055;-56
2022/07/12 11:46:12;;;;;;;0.50;0.10;;;31.50;58.50;;;;;;5068567;28;20143;-56
2022/07/12 11:48:38;;;;;;;0.52;0.10;;;31.50;58.30;;;;;;5069861;28;20033;-56
2022/07/12 11:51:06;;;;;;;1.55;0.10;;;31.40;59.10;;;;;;5070481;28;20067;-56
2022/07/12 11:53:34;;;;;;;1.30;0.10;;;31.30;60.10;;;;;;5069494;28;20389;-56
2022/07/12 11:56:01;;;;;;;0.20;0.10;;;31.20;60.50;;;;;;5069790;28;20040;-56
2022/07/12 11:58:27;;;;;;;0.70;0.10;;;31.00;61.00;;;;;;5069827;28;20040;-56
2022/07/12 12:00:54;;;;;;;0.90;0.10;;;31.00;60.80;;;;;;5069970;28;20043;-56
2022/07/12 12:03:24;;;;;;;0.73;0.10;;;31.00;60.80;;;;;;5069278;28;20044;-56
2022/07/12 12:05:57;;;;;;;0.90;0.17;;;31.00;61.30;;;;;;5069168;28;20090;-56
2022/07/12 12:08:24;;;;;;;1.50;0.20;;;30.90;63.20;;;;;;5068957;28;20040;-56
2022/07/12 12:10:55;;;;;;;0.20;0.10;;;30.70;63.40;;;;;;5069143;28;20047;-56
2022/07/12 12:13:21;;;;;;;;;;;30.80;62.90;;;;;;5069060;28;20414;-56
2022/07/12 12:16:01;;;;;;;0.35;0.10;;;30.80;61.80;;;;;;5069615;28;19921;-56
2022/07/12 12:18:38;;;;;;;0.50;0.10;;;30.80;62.70;;;;;;5068735;28;20044;-56
2022/07/12 12:21:08;;;;;;;1.83;0.25;;;30.90;61.40;;;;;;5069347;28;20044;-56
2022/07/12 12:23:36;;;;;;;0.85;0.10;;;30.80;61.30;;;;;;5068719;28;20099;-56
2022/07/12 12:26:23;;;;;;;1.30;0.10;;;30.70;61.90;;;;;;5068820;28;20064;-56
2022/07/12 12:28:50;;;;;;;0.70;0.10;;;30.90;62.70;;;;;;5068826;28;20050;-56
2022/07/12 12:31:18;;;;;;;1.30;0.10;;;31.70;61.40;;;;;;5069116;28;20552;-56
2022/07/12 12:33:47;;;;;;;0.57;0.10;;;30.60;61.50;;;;;;5068329;28;20441;-56
2022/07/12 12:36:24;;;;;;;1.20;0.10;;;30.50;61.60;;;;;;5068901;28;20087;-56
2022/07/12 12:39:03;;;;;;;1.33;0.20;;;30.30;61.90;;;;;;5069131;28;20041;-56
2022/07/12 12:41:37;;;;;;;1.27;0.20;;;30.00;62.10;;;;;;5068047;28;20131;-56
2022/07/12 12:44:04;;;;;;;2.15;0.20;;;29.80;63.30;;;;;;5069401;28;20059;-56
2022/07/12 12:47:30;;;;;;;2.90;0.20;;;29.50;63.50;;;;;;5069024;28;20036;-56
2022/07/12 12:49:49;;;;;;;1.42;0.25;;;29.30;66.30;;;;;;5068526;28;20048;-56
2022/07/12 12:52:16;;;;;;;1.20;0.10;;;29.00;66.60;;;;;;5068951;28;20044;-56
2022/07/12 12:54:41;;;;;;;2.97;0.45;;;28.80;66.60;;;;;;5068560;28;20051;-56
2022/07/12 12:57:08;;;;;;;1.52;0.20;;;28.80;66.30;;;;;;5068751;28;20048;-56
2022/07/12 12:59:35;;;;;;;0.98;0.20;;;28.80;66.80;;;;;;5068444;28;20059;-56
2022/07/12 13:02:02;;;;;;;2.25;0.60;;;28.80;67.50;;;;;;5068557;28;20094;-56